Time;durP1;ratioP1;P1;durP2;ratioP2;P2;SDS_P1;SDS_P2;PMS_P1;PMS_P2;Temp;Humidity;BMP_temperature;BMP_pressure;BME280_temperature;BME280_humidity;BME280_pressure;Samples;Min_cycle;Max_cycle;Signal;HPM_P1;HPM_P2
2021/06/28 00:01:47;;;;;;;0.80;0.70;;;23.70;50.00;;;;;;5125280;28;20055;-35
2021/06/28 00:04:13;;;;;;;0.80;0.60;;;23.70;50.30;;;;;;5125423;28;20023;-35
2021/06/28 00:06:40;;;;;;;0.75;0.70;;;23.70;50.20;;;;;;5124654;28;20039;-35
2021/06/28 00:09:06;;;;;;;0.88;0.70;;;23.60;49.40;;;;;;5125270;28;20045;-35
2021/06/28 00:11:32;;;;;;;0.80;0.70;;;23.60;49.20;;;;;;5125303;28;20023;-35
2021/06/28 00:13:58;;;;;;;0.70;0.60;;;23.60;48.60;;;;;;5125061;28;20091;-35
2021/06/28 00:16:24;;;;;;;0.70;0.70;;;23.60;48.70;;;;;;5124664;28;20047;-35
2021/06/28 00:18:52;;;;;;;0.95;0.70;;;23.50;49.00;;;;;;5125075;28;20040;-35
2021/06/28 00:21:17;;;;;;;;;;;23.50;48.40;;;;;;5125190;28;20031;-35
2021/06/28 00:23:44;;;;;;;0.73;0.73;;;23.50;48.70;;;;;;5125202;27;19907;-35
2021/06/28 00:26:10;;;;;;;0.63;0.50;;;23.50;48.40;;;;;;5124648;28;20412;-35
2021/06/28 00:28:36;;;;;;;1.08;0.70;;;23.50;48.50;;;;;;5123538;28;20035;-35
2021/06/28 00:31:02;;;;;;;0.70;0.70;;;23.40;48.50;;;;;;5125095;28;20111;-35
2021/06/28 00:33:30;;;;;;;0.70;0.60;;;23.40;49.40;;;;;;5124648;28;20026;-35
2021/06/28 00:35:56;;;;;;;0.70;0.70;;;23.40;49.90;;;;;;5124349;28;20087;-35
2021/06/28 00:38:22;;;;;;;1.02;0.70;;;23.40;50.00;;;;;;5124833;28;20571;-35
2021/06/28 00:40:49;;;;;;;1.00;0.80;;;23.40;50.70;;;;;;5124448;28;20042;-35
2021/06/28 00:43:15;;;;;;;0.75;0.63;;;23.40;51.10;;;;;;5124759;28;20031;-35
2021/06/28 00:45:42;;;;;;;0.75;0.65;;;23.30;50.40;;;;;;5123111;28;20115;-35
2021/06/28 00:48:15;;;;;;;0.82;0.70;;;23.30;50.20;;;;;;5124584;28;20028;-35
2021/06/28 00:50:43;;;;;;;1.00;0.70;;;23.30;50.40;;;;;;5104054;28;20384;-35
2021/06/28 00:53:11;;;;;;;0.70;0.70;;;23.30;51.60;;;;;;5103999;28;20024;-34
2021/06/28 00:55:38;;;;;;;1.27;0.60;;;23.30;49.30;;;;;;5103826;28;20028;-34
2021/06/28 00:58:04;;;;;;;0.80;0.70;;;23.20;49.10;;;;;;5103720;28;20051;-35
2021/06/28 01:00:31;;;;;;;0.60;0.60;;;23.20;49.00;;;;;;5104020;28;20036;-34
2021/06/28 01:02:57;;;;;;;0.65;0.55;;;23.20;48.60;;;;;;5103777;28;20425;-34
2021/06/28 01:05:25;;;;;;;0.70;0.60;;;23.20;49.20;;;;;;5111066;28;20050;-34
2021/06/28 01:07:51;;;;;;;0.60;0.57;;;23.10;50.10;;;;;;5123323;28;21326;-34
2021/06/28 01:10:18;;;;;;;0.88;0.50;;;23.10;49.50;;;;;;5123830;28;20019;-34
2021/06/28 01:12:44;;;;;;;;;;;23.10;49.70;;;;;;5124572;28;20023;-34
2021/06/28 01:15:11;;;;;;;0.98;0.68;;;23.00;51.10;;;;;;5123687;28;19927;-34
2021/06/28 01:17:38;;;;;;;0.90;0.70;;;23.00;52.20;;;;;;5123655;28;20092;-34
2021/06/28 01:20:12;;;;;;;0.68;0.57;;;23.00;53.20;;;;;;5123964;28;20097;-34
2021/06/28 01:22:40;;;;;;;1.25;0.60;;;23.00;54.30;;;;;;5123988;28;20716;-34
2021/06/28 01:25:09;;;;;;;0.70;0.70;;;23.00;55.00;;;;;;5122356;28;20066;-35
2021/06/28 01:27:36;;;;;;;0.65;0.60;;;23.00;55.50;;;;;;5123787;28;20543;-35
2021/06/28 01:30:04;;;;;;;0.82;0.70;;;23.00;55.90;;;;;;5123866;28;20062;-34
2021/06/28 01:32:30;;;;;;;1.08;0.80;;;23.00;56.30;;;;;;5122317;28;20088;-35
2021/06/28 01:34:56;;;;;;;0.63;0.63;;;23.10;56.90;;;;;;5123626;28;20023;-34
2021/06/28 01:37:24;;;;;;;2.55;0.80;;;23.10;57.30;;;;;;5123360;28;20031;-35
2021/06/28 01:39:53;;;;;;;0.60;0.60;;;23.10;57.80;;;;;;5123731;28;20032;-35
2021/06/28 01:42:19;;;;;;;0.90;0.65;;;23.10;58.40;;;;;;5123531;28;20035;-35
2021/06/28 01:44:45;;;;;;;1.03;0.70;;;23.10;58.60;;;;;;5123381;28;20070;-35
2021/06/28 01:47:11;;;;;;;1.10;0.70;;;23.10;59.00;;;;;;5123276;28;20047;-35
2021/06/28 01:49:38;;;;;;;0.80;0.70;;;23.10;59.20;;;;;;5123590;28;20034;-35
2021/06/28 01:52:05;;;;;;;0.70;0.65;;;23.10;59.40;;;;;;5123787;28;20132;-35
2021/06/28 01:54:31;;;;;;;1.02;0.70;;;23.10;59.60;;;;;;5123496;28;20137;-35
2021/06/28 01:56:58;;;;;;;0.70;0.70;;;23.10;59.80;;;;;;5122780;28;20023;-35
2021/06/28 01:59:34;;;;;;;0.70;0.70;;;23.10;59.80;;;;;;5123491;28;20023;-35
2021/06/28 02:02:01;;;;;;;0.82;0.70;;;23.10;60.00;;;;;;5123228;28;20042;-35
2021/06/28 02:04:28;;;;;;;0.85;0.70;;;23.10;60.20;;;;;;5123330;28;20024;-35
2021/06/28 02:06:57;;;;;;;0.73;0.60;;;23.20;60.30;;;;;;5122514;28;20043;-35
2021/06/28 02:09:23;;;;;;;0.90;0.80;;;23.20;60.50;;;;;;5122010;28;20650;-34
2021/06/28 02:11:50;;;;;;;1.60;0.70;;;23.20;60.30;;;;;;5123025;28;20097;-34
2021/06/28 02:14:16;;;;;;;0.90;0.88;;;23.20;60.60;;;;;;5119403;28;20030;-35
2021/06/28 02:16:46;;;;;;;1.02;0.70;;;23.20;60.60;;;;;;5102781;28;20415;-35
2021/06/28 02:19:13;;;;;;;0.90;0.80;;;23.20;60.50;;;;;;5110531;28;20027;-35
2021/06/28 02:21:39;;;;;;;;;;;23.30;60.60;;;;;;5123764;28;20027;-35
2021/06/28 02:24:06;;;;;;;0.73;0.65;;;23.30;60.60;;;;;;5122670;28;19903;-35
2021/06/28 02:26:32;;;;;;;0.70;0.70;;;23.30;60.90;;;;;;5122964;28;20040;-35
2021/06/28 02:28:58;;;;;;;0.80;0.73;;;23.30;60.70;;;;;;5122872;28;20032;-35
2021/06/28 02:31:24;;;;;;;0.80;0.80;;;23.30;61.60;;;;;;5123098;28;20480;-35
2021/06/28 02:33:51;;;;;;;1.77;0.80;;;23.30;61.50;;;;;;5123045;28;20020;-35
2021/06/28 02:36:18;;;;;;;0.82;0.82;;;23.30;61.80;;;;;;5122988;28;20037;-35
2021/06/28 02:38:48;;;;;;;1.58;0.70;;;23.30;62.60;;;;;;5122736;28;20560;-35
2021/06/28 02:41:14;;;;;;;1.10;0.70;;;23.30;62.20;;;;;;5123150;28;20035;-35
2021/06/28 02:43:40;;;;;;;0.70;0.70;;;23.20;62.20;;;;;;5123103;28;20464;-35
2021/06/28 02:46:07;;;;;;;1.03;0.87;;;23.30;62.30;;;;;;5122993;28;20103;-35
2021/06/28 02:48:33;;;;;;;1.05;0.70;;;23.30;62.20;;;;;;5122861;28;20039;-35
2021/06/28 02:50:59;;;;;;;0.70;0.70;;;23.30;63.10;;;;;;5122901;28;20031;-35
2021/06/28 02:53:25;;;;;;;0.75;0.68;;;23.30;63.10;;;;;;5113846;28;20540;-35
2021/06/28 02:55:52;;;;;;;0.70;0.70;;;23.30;62.30;;;;;;5102399;28;20108;-36
2021/06/28 02:58:19;;;;;;;1.05;0.70;;;23.30;62.50;;;;;;5102289;28;20103;-35
2021/06/28 03:00:45;;;;;;;0.80;0.73;;;23.30;62.30;;;;;;5102476;28;20028;-35
2021/06/28 03:03:12;;;;;;;1.20;0.88;;;23.30;62.20;;;;;;5102276;28;20032;-35
2021/06/28 03:05:38;;;;;;;1.35;0.80;;;23.30;62.40;;;;;;5103434;28;20036;-35
2021/06/28 03:08:06;;;;;;;0.80;0.70;;;23.40;62.40;;;;;;5123551;28;20062;-35
2021/06/28 03:10:34;;;;;;;0.60;0.60;;;23.40;62.40;;;;;;5126022;28;20480;-36
2021/06/28 03:13:00;;;;;;;;;;;23.40;63.10;;;;;;5125578;28;20557;-35
2021/06/28 03:15:26;;;;;;;0.75;0.75;;;23.40;63.20;;;;;;5126396;28;19938;-35
2021/06/28 03:17:52;;;;;;;0.60;0.60;;;23.30;63.50;;;;;;5126184;28;20125;-35
2021/06/28 03:20:18;;;;;;;0.82;0.70;;;23.30;63.50;;;;;;5126166;28;20035;-35
2021/06/28 03:22:45;;;;;;;0.70;0.63;;;23.30;63.50;;;;;;5126326;28;20024;-35
2021/06/28 03:25:13;;;;;;;0.60;0.60;;;23.30;63.70;;;;;;5126142;28;20035;-35
2021/06/28 03:27:40;;;;;;;0.80;0.73;;;23.30;63.70;;;;;;5124713;28;20036;-35
2021/06/28 03:30:08;;;;;;;0.95;0.80;;;23.30;63.80;;;;;;5126018;28;20027;-35
2021/06/28 03:32:34;;;;;;;1.08;0.75;;;23.30;63.80;;;;;;5126367;28;20079;-35
2021/06/28 03:35:00;;;;;;;0.57;0.57;;;23.30;64.00;;;;;;5126242;28;20028;-35
2021/06/28 03:37:26;;;;;;;0.80;0.80;;;23.30;63.90;;;;;;5125950;28;20027;-35
2021/06/28 03:39:53;;;;;;;1.23;0.60;;;23.30;63.80;;;;;;5125689;28;20027;-35
2021/06/28 03:42:19;;;;;;;1.40;0.73;;;23.30;63.70;;;;;;5125761;28;20031;-35
2021/06/28 03:44:45;;;;;;;0.80;0.63;;;23.40;63.30;;;;;;5125915;28;20015;-35
2021/06/28 03:47:11;;;;;;;0.90;0.75;;;23.40;63.20;;;;;;5125814;28;20036;-35
2021/06/28 03:49:38;;;;;;;0.82;0.70;;;23.40;63.40;;;;;;5125567;28;20080;-35
2021/06/28 03:52:04;;;;;;;1.00;0.70;;;23.40;62.90;;;;;;5125865;28;20027;-35
2021/06/28 03:54:30;;;;;;;0.82;0.82;;;23.40;63.00;;;;;;5106430;28;20062;-35
2021/06/28 03:56:56;;;;;;;0.75;0.70;;;23.40;63.20;;;;;;5105173;28;20032;-35
2021/06/28 03:59:23;;;;;;;0.80;0.80;;;23.40;63.40;;;;;;5114306;28;20041;-35
2021/06/28 04:01:49;;;;;;;0.85;0.73;;;23.40;64.20;;;;;;5125624;28;20028;-35
2021/06/28 04:04:16;;;;;;;0.80;0.73;;;23.40;64.30;;;;;;5125468;28;20016;-35
2021/06/28 04:06:43;;;;;;;1.05;0.95;;;23.40;64.30;;;;;;5125503;28;20400;-35
2021/06/28 04:09:09;;;;;;;0.88;0.75;;;23.40;64.40;;;;;;5125158;27;20023;-35
2021/06/28 04:11:35;;;;;;;0.80;0.80;;;23.40;64.70;;;;;;5125189;28;20025;-35
2021/06/28 04:14:01;;;;;;;0.93;0.82;;;23.40;64.70;;;;;;5125027;28;20023;-35
2021/06/28 04:16:28;;;;;;;1.17;0.88;;;23.40;64.90;;;;;;5125141;27;20142;-35
2021/06/28 04:18:54;;;;;;;0.85;0.70;;;23.30;64.80;;;;;;5124926;28;20024;-35
2021/06/28 04:21:21;;;;;;;1.33;0.90;;;23.30;64.90;;;;;;5125244;28;20031;-35
2021/06/28 04:23:47;;;;;;;0.90;0.90;;;23.30;64.90;;;;;;5113300;28;20084;-35
2021/06/28 04:26:13;;;;;;;0.70;0.70;;;23.30;65.00;;;;;;5104558;28;20032;-35
2021/06/28 04:28:39;;;;;;;0.90;0.80;;;23.30;64.40;;;;;;5104638;28;20586;-35
2021/06/28 04:31:06;;;;;;;1.23;0.80;;;23.30;64.30;;;;;;5104384;28;20028;-35
2021/06/28 04:33:32;;;;;;;1.08;0.70;;;23.40;63.80;;;;;;5104661;28;20043;-35
2021/06/28 04:35:58;;;;;;;1.00;0.85;;;23.40;64.10;;;;;;5108382;28;20059;-35
2021/06/28 04:38:25;;;;;;;0.82;0.80;;;23.40;64.20;;;;;;5124711;28;20020;-35
2021/06/28 04:40:52;;;;;;;0.80;0.80;;;23.40;64.00;;;;;;5124374;28;20035;-35
2021/06/28 04:43:18;;;;;;;1.52;0.80;;;23.40;63.70;;;;;;5124999;28;20028;-35
2021/06/28 04:45:44;;;;;;;1.48;0.73;;;23.40;63.90;;;;;;5124683;28;20046;-35
2021/06/28 04:48:10;;;;;;;0.80;0.80;;;23.40;63.60;;;;;;5124745;28;20048;-35
2021/06/28 04:50:36;;;;;;;1.23;0.82;;;23.40;64.50;;;;;;5124582;27;20110;-35
2021/06/28 04:53:03;;;;;;;1.00;0.77;;;23.40;64.80;;;;;;5124581;28;20028;-35
2021/06/28 04:55:29;;;;;;;0.90;0.70;;;23.40;65.40;;;;;;5124327;28;20023;-35
2021/06/28 04:57:58;;;;;;;0.73;0.70;;;23.40;65.40;;;;;;5124606;28;20024;-35
2021/06/28 05:00:24;;;;;;;1.23;0.70;;;23.40;65.60;;;;;;5124389;28;20030;-35
2021/06/28 05:02:51;;;;;;;1.80;0.80;;;23.30;65.30;;;;;;5124483;28;20031;-35
2021/06/28 05:05:17;;;;;;;1.33;1.13;;;23.40;65.60;;;;;;5124166;28;20027;-35
2021/06/28 05:07:43;;;;;;;1.00;0.90;;;23.30;65.80;;;;;;5124300;27;20023;-35
2021/06/28 05:10:10;;;;;;;0.70;0.70;;;23.30;65.40;;;;;;5123816;28;20024;-35
2021/06/28 05:12:36;;;;;;;0.80;0.80;;;23.40;65.40;;;;;;5123737;28;20035;-35
2021/06/28 05:15:04;;;;;;;0.98;0.75;;;23.30;65.30;;;;;;5123974;28;20051;-35
2021/06/28 05:17:31;;;;;;;1.00;0.90;;;23.30;65.20;;;;;;5124330;28;20077;-35
2021/06/28 05:19:57;;;;;;;0.88;0.85;;;23.40;64.60;;;;;;5124002;28;20357;-35
2021/06/28 05:22:23;;;;;;;0.80;0.80;;;23.40;64.30;;;;;;5123938;28;20038;-35
2021/06/28 05:24:49;;;;;;;1.15;0.95;;;23.40;64.30;;;;;;5103566;28;20024;-35
2021/06/28 05:27:15;;;;;;;0.98;0.88;;;23.40;64.20;;;;;;5118261;28;20065;-35
2021/06/28 05:29:41;;;;;;;0.98;0.77;;;23.40;64.60;;;;;;5123624;28;20027;-35
2021/06/28 05:32:08;;;;;;;0.85;0.80;;;23.40;64.50;;;;;;5123369;28;20168;-35
2021/06/28 05:34:34;;;;;;;1.10;1.00;;;23.40;64.30;;;;;;5123750;27;20019;-35
2021/06/28 05:37:00;;;;;;;1.08;0.98;;;23.40;64.40;;;;;;5123948;28;20027;-35
2021/06/28 05:39:26;;;;;;;1.27;0.80;;;23.40;64.80;;;;;;5123481;28;20535;-35
2021/06/28 05:41:52;;;;;;;1.05;0.90;;;23.30;65.60;;;;;;5123492;28;20478;-35
2021/06/28 05:44:19;;;;;;;0.95;0.85;;;23.30;66.20;;;;;;5123744;28;20024;-35
2021/06/28 05:46:45;;;;;;;2.22;0.70;;;23.40;66.40;;;;;;5123607;28;20047;-35
2021/06/28 05:49:11;;;;;;;1.00;0.90;;;23.40;66.10;;;;;;5115955;28;20043;-35
2021/06/28 05:51:37;;;;;;;1.35;0.80;;;23.40;66.30;;;;;;5102967;28;20028;-35
2021/06/28 05:54:04;;;;;;;1.00;0.90;;;23.30;66.10;;;;;;5149878;27;20026;-35
2021/06/28 05:56:30;;;;;;;1.02;0.95;;;23.40;66.20;;;;;;5123314;28;20019;-35
2021/06/28 05:58:57;;;;;;;0.90;0.90;;;23.30;65.90;;;;;;5123361;28;20027;-35
2021/06/28 06:01:23;;;;;;;0.95;0.85;;;23.30;66.10;;;;;;5123332;28;20079;-35
2021/06/28 06:03:49;;;;;;;1.45;1.00;;;23.30;65.20;;;;;;5122743;28;20084;-35
2021/06/28 06:06:15;;;;;;;1.02;0.90;;;23.30;65.60;;;;;;5122823;28;20027;-35
2021/06/28 06:08:41;;;;;;;0.90;0.85;;;23.30;65.80;;;;;;5123300;28;20027;-35
2021/06/28 06:11:08;;;;;;;0.80;0.80;;;23.30;65.50;;;;;;5123094;28;20055;-35
2021/06/28 06:13:34;;;;;;;0.85;0.80;;;23.40;65.70;;;;;;5123432;28;20020;-35
2021/06/28 06:16:00;;;;;;;0.73;0.73;;;23.30;65.60;;;;;;5123119;28;20060;-35
2021/06/28 06:18:27;;;;;;;1.10;1.00;;;23.40;65.70;;;;;;5122950;28;20043;-35
2021/06/28 06:20:53;;;;;;;1.13;1.02;;;23.40;66.00;;;;;;5123172;28;20062;-35
2021/06/28 06:23:19;;;;;;;0.93;0.80;;;23.30;66.30;;;;;;5123326;28;20059;-35
2021/06/28 06:25:46;;;;;;;1.10;1.00;;;23.30;66.30;;;;;;5123128;28;20027;-35
2021/06/28 06:28:13;;;;;;;0.88;0.88;;;23.30;66.70;;;;;;5121980;28;20027;-36
2021/06/28 06:30:39;;;;;;;1.85;0.90;;;23.30;66.80;;;;;;5121759;28;20028;-35
2021/06/28 06:33:05;;;;;;;1.20;1.10;;;23.30;66.80;;;;;;5123130;28;20030;-35
2021/06/28 06:35:32;;;;;;;0.80;0.80;;;23.30;67.00;;;;;;5123230;28;20028;-35
2021/06/28 06:37:59;;;;;;;0.85;0.85;;;23.30;66.90;;;;;;5121910;28;20079;-36
2021/06/28 06:40:26;;;;;;;0.98;0.90;;;23.30;67.00;;;;;;5121795;28;20047;-35
2021/06/28 06:42:56;;;;;;;1.05;0.95;;;23.30;67.10;;;;;;5125126;28;20106;-35
2021/06/28 06:45:22;;;;;;;0.95;0.85;;;23.30;67.10;;;;;;5127026;28;20036;-35
2021/06/28 06:47:48;;;;;;;1.00;0.88;;;23.30;67.10;;;;;;5127298;28;20032;-35
2021/06/28 06:50:16;;;;;;;1.23;1.13;;;23.30;67.00;;;;;;5127036;28;20027;-36
2021/06/28 06:52:43;;;;;;;1.73;0.90;;;23.30;66.70;;;;;;5126868;28;20555;-35
2021/06/28 06:55:09;;;;;;;;;;;23.30;66.80;;;;;;5127349;28;20031;-35
2021/06/28 06:57:36;;;;;;;1.42;1.00;;;23.30;67.00;;;;;;5126779;28;19991;-35
2021/06/28 07:00:08;;;;;;;1.05;0.95;;;23.30;66.80;;;;;;5127067;28;20024;-35
2021/06/28 07:02:34;;;;;;;1.20;0.90;;;23.30;67.10;;;;;;5126619;28;20030;-35
2021/06/28 07:05:00;;;;;;;1.10;1.00;;;23.30;67.10;;;;;;5126830;28;20869;-35
2021/06/28 07:07:26;;;;;;;1.00;0.90;;;23.30;66.80;;;;;;5126565;28;20023;-35
2021/06/28 07:09:52;;;;;;;1.27;1.10;;;23.30;66.90;;;;;;5126585;28;20028;-35
2021/06/28 07:12:19;;;;;;;1.38;1.10;;;23.30;67.00;;;;;;5126141;28;20050;-35
2021/06/28 07:14:45;;;;;;;1.10;1.00;;;23.30;67.30;;;;;;5125244;28;20496;-35
2021/06/28 07:17:11;;;;;;;1.17;1.00;;;23.30;67.50;;;;;;5126674;28;20042;-35
2021/06/28 07:19:37;;;;;;;2.10;1.08;;;23.30;67.60;;;;;;5126544;28;20140;-35
2021/06/28 07:22:04;;;;;;;0.95;0.90;;;23.30;67.90;;;;;;5126143;28;20026;-35
2021/06/28 07:24:30;;;;;;;1.02;0.93;;;23.30;67.60;;;;;;5126353;28;20475;-35
2021/06/28 07:26:56;;;;;;;1.60;1.00;;;23.30;67.80;;;;;;5126228;28;20040;-35
2021/06/28 07:29:22;;;;;;;1.17;1.08;;;23.30;67.70;;;;;;5126507;28;20024;-35
2021/06/28 07:31:49;;;;;;;1.10;0.98;;;23.30;68.00;;;;;;5126133;28;20052;-35
2021/06/28 07:34:15;;;;;;;1.20;1.10;;;23.30;67.80;;;;;;5126254;28;20027;-35
2021/06/28 07:36:41;;;;;;;1.40;0.93;;;23.30;67.70;;;;;;5126087;28;20038;-35
2021/06/28 07:39:07;;;;;;;1.02;1.00;;;23.30;67.80;;;;;;5125902;28;20095;-35
2021/06/28 07:41:34;;;;;;;1.30;1.20;;;23.30;67.70;;;;;;5125780;28;20036;-36
2021/06/28 07:44:05;;;;;;;1.20;1.10;;;23.30;67.70;;;;;;5126064;28;20031;-36
2021/06/28 07:46:31;;;;;;;1.25;1.15;;;23.30;67.40;;;;;;5126131;28;20134;-36
2021/06/28 07:48:58;;;;;;;1.10;0.97;;;23.30;67.30;;;;;;5125957;28;20020;-36
2021/06/28 07:51:24;;;;;;;1.30;1.13;;;23.20;67.40;;;;;;5125911;28;20027;-36
2021/06/28 07:53:50;;;;;;;1.20;1.10;;;23.20;67.30;;;;;;5125289;28;20031;-36
2021/06/28 07:56:19;;;;;;;1.02;1.00;;;23.30;68.00;;;;;;5125370;28;20126;-36
2021/06/28 07:58:48;;;;;;;1.10;1.00;;;23.20;68.20;;;;;;5126038;28;20065;-36
2021/06/28 08:01:14;;;;;;;1.42;1.10;;;23.20;68.30;;;;;;5125775;28;20058;-36
2021/06/28 08:03:47;;;;;;;1.07;1.00;;;23.20;68.20;;;;;;5125262;28;20028;-36
2021/06/28 08:06:17;;;;;;;1.33;1.10;;;23.20;68.20;;;;;;5123868;28;20087;-36
2021/06/28 08:08:44;;;;;;;1.15;1.13;;;23.20;68.30;;;;;;5125715;28;20032;-36
2021/06/28 08:11:11;;;;;;;1.65;0.98;;;23.20;68.20;;;;;;5124148;28;20032;-36
2021/06/28 08:13:39;;;;;;;1.20;1.10;;;23.20;68.40;;;;;;5123830;28;20042;-36
2021/06/28 08:16:05;;;;;;;1.10;1.02;;;23.20;68.50;;;;;;5125324;28;20142;-36
2021/06/28 08:18:31;;;;;;;1.20;1.10;;;23.20;68.60;;;;;;5125158;28;20035;-36
2021/06/28 08:20:58;;;;;;;0.90;0.80;;;23.20;68.60;;;;;;5125427;28;20476;-36
2021/06/28 08:23:24;;;;;;;1.20;1.10;;;23.20;68.40;;;;;;5125122;28;20096;-36
2021/06/28 08:25:50;;;;;;;1.30;1.08;;;23.20;68.20;;;;;;5125014;28;20039;-36
2021/06/28 08:28:16;;;;;;;1.13;1.02;;;23.20;68.10;;;;;;5125163;28;20016;-36
2021/06/28 08:30:42;;;;;;;1.05;1.02;;;23.20;68.00;;;;;;5125178;28;20051;-36
2021/06/28 08:33:08;;;;;;;1.20;1.02;;;23.20;68.00;;;;;;5124746;28;20028;-36
2021/06/28 08:35:34;;;;;;;1.08;0.93;;;23.20;68.10;;;;;;5124907;28;20035;-36
2021/06/28 08:38:02;;;;;;;1.20;1.10;;;23.20;68.00;;;;;;5125098;28;20035;-36
2021/06/28 08:40:29;;;;;;;1.50;0.90;;;23.20;68.60;;;;;;5124926;28;20042;-36
2021/06/28 08:42:55;;;;;;;0.98;0.90;;;23.20;68.70;;;;;;5124583;28;20031;-36
2021/06/28 08:45:22;;;;;;;1.23;1.10;;;23.20;69.00;;;;;;5125027;28;20047;-36
2021/06/28 08:47:49;;;;;;;0.88;0.88;;;23.10;69.00;;;;;;5124823;28;20032;-36
2021/06/28 08:50:15;;;;;;;0.90;0.70;;;23.10;69.00;;;;;;5106466;28;20120;-36
2021/06/28 08:52:43;;;;;;;0.93;0.93;;;23.10;69.00;;;;;;5123393;28;20032;-36
2021/06/28 08:55:10;;;;;;;1.35;0.90;;;23.10;69.00;;;;;;5124451;28;20118;-36
2021/06/28 08:57:36;;;;;;;1.20;1.08;;;23.10;69.30;;;;;;5124610;28;20049;-36
2021/06/28 09:00:08;;;;;;;1.75;1.00;;;23.10;69.10;;;;;;5124651;28;20032;-36
2021/06/28 09:02:34;;;;;;;0.88;0.88;;;23.10;69.40;;;;;;5124177;28;20020;-42
2021/06/28 09:05:03;;;;;;;1.10;1.00;;;23.10;69.20;;;;;;5123806;28;20138;-36
2021/06/28 09:07:29;;;;;;;1.15;1.00;;;23.10;69.00;;;;;;5123801;28;20042;-36
2021/06/28 09:09:55;;;;;;;1.10;1.00;;;23.10;68.90;;;;;;5124269;28;20027;-36
2021/06/28 09:12:21;;;;;;;1.52;1.13;;;23.10;68.90;;;;;;5124156;28;20042;-36
2021/06/28 09:14:59;;;;;;;3.05;1.20;;;23.10;68.80;;;;;;5124064;28;20032;-36
2021/06/28 09:17:26;;;;;;;;;;;23.10;68.70;;;;;;5124637;28;20099;-36
2021/06/28 09:20:14;;;;;;;0.80;0.80;;;23.10;68.90;;;;;;5124278;28;19919;-36
2021/06/28 09:22:41;;;;;;;1.77;1.10;;;23.10;68.70;;;;;;5124093;28;20028;-36
2021/06/28 09:25:09;;;;;;;1.00;0.90;;;23.10;68.60;;;;;;5122345;28;20637;-36
2021/06/28 09:27:42;;;;;;;1.13;1.02;;;23.10;69.10;;;;;;5122552;28;20036;-36
2021/06/28 09:30:20;;;;;;;1.27;0.95;;;23.10;69.20;;;;;;5123765;28;20015;-36
2021/06/28 09:32:54;;;;;;;1.13;1.02;;;23.10;69.70;;;;;;5124019;28;20027;-36
2021/06/28 09:35:39;;;;;;;1.25;1.15;;;23.10;69.80;;;;;;5123560;28;20053;-36
2021/06/28 09:38:36;;;;;;;0.80;0.80;;;23.10;70.00;;;;;;5103550;28;20077;-36
2021/06/28 09:41:31;;;;;;;0.95;0.95;;;23.10;70.00;;;;;;5103300;28;20024;-36
2021/06/28 09:44:05;;;;;;;1.42;1.10;;;23.10;70.00;;;;;;5135943;27;20024;-36
2021/06/28 09:46:32;;;;;;;1.20;1.10;;;23.00;69.70;;;;;;5103235;28;20051;-36
2021/06/28 09:48:58;;;;;;;1.20;1.10;;;23.00;69.90;;;;;;5109545;28;20032;-36
2021/06/28 09:51:27;;;;;;;1.50;1.10;;;23.00;69.70;;;;;;5123820;28;20026;-36
2021/06/28 09:54:07;;;;;;;1.15;0.98;;;23.10;69.40;;;;;;5123500;28;20042;-36
2021/06/28 09:56:41;;;;;;;1.05;0.95;;;23.00;69.20;;;;;;5123544;28;20024;-36
2021/06/28 09:59:22;;;;;;;1.08;0.98;;;23.10;69.40;;;;;;5123520;28;20080;-36
2021/06/28 10:01:50;;;;;;;1.30;0.95;;;23.10;69.50;;;;;;5105935;28;20024;-36
2021/06/28 10:04:38;;;;;;;0.98;0.75;;;23.10;69.20;;;;;;5123407;28;20020;-36
2021/06/28 10:07:22;;;;;;;1.00;0.95;;;23.10;69.20;;;;;;5116163;28;20100;-36
2021/06/28 10:10:28;;;;;;;1.10;1.00;;;23.10;69.20;;;;;;5123319;28;20050;-36
2021/06/28 10:12:57;;;;;;;1.08;0.90;;;23.10;69.20;;;;;;5118025;28;20043;-36
2021/06/28 10:15:25;;;;;;;0.90;0.90;;;23.10;69.50;;;;;;5122838;28;20058;-36
2021/06/28 10:17:51;;;;;;;1.00;1.00;;;23.10;69.80;;;;;;5123041;28;20032;-36
2021/06/28 10:20:25;;;;;;;1.00;0.80;;;23.00;69.90;;;;;;5123477;28;20024;-37
2021/06/28 10:22:52;;;;;;;1.25;1.02;;;23.00;70.00;;;;;;5123351;28;20027;-36
2021/06/28 10:25:20;;;;;;;1.90;1.00;;;23.00;70.00;;;;;;5122920;28;20855;-36
2021/06/28 10:27:46;;;;;;;1.08;1.00;;;23.00;70.10;;;;;;5122950;28;20039;-36
2021/06/28 10:30:14;;;;;;;1.17;1.00;;;23.00;70.40;;;;;;5123224;28;20042;-36
2021/06/28 10:32:41;;;;;;;1.17;1.08;;;23.00;70.20;;;;;;5123205;28;20023;-36
2021/06/28 10:35:10;;;;;;;1.17;1.00;;;23.00;70.20;;;;;;5121438;28;20034;-36
2021/06/28 10:37:38;;;;;;;1.10;1.00;;;23.00;70.20;;;;;;5123240;28;20031;-36
2021/06/28 10:40:10;;;;;;;0.90;0.90;;;23.00;69.60;;;;;;5123019;28;20065;-36
2021/06/28 10:42:41;;;;;;;1.00;0.90;;;23.00;69.60;;;;;;5122927;28;20024;-36
2021/06/28 10:45:09;;;;;;;1.15;1.05;;;23.00;69.50;;;;;;5122844;28;20019;-36
2021/06/28 10:47:36;;;;;;;1.25;1.15;;;23.00;69.40;;;;;;5122991;28;20057;-36
2021/06/28 10:50:03;;;;;;;1.10;0.90;;;23.00;69.30;;;;;;5123231;28;20071;-37
2021/06/28 10:52:32;;;;;;;;;;;23.00;69.30;;;;;;5122402;28;20048;-36
2021/06/28 10:54:58;;;;;;;0.82;0.82;;;23.00;69.40;;;;;;5122364;28;19908;-36
2021/06/28 10:57:40;;;;;;;1.17;1.08;;;23.00;69.80;;;;;;5122780;28;20413;-36
2021/06/28 11:00:07;;;;;;;0.90;0.90;;;23.00;70.00;;;;;;5121476;28;20046;-36
2021/06/28 11:02:37;;;;;;;0.98;0.95;;;23.00;70.30;;;;;;5122744;28;20034;-36
2021/06/28 11:05:04;;;;;;;1.10;1.00;;;23.00;70.50;;;;;;5120831;28;20040;-36
2021/06/28 11:07:56;;;;;;;2.38;1.13;;;23.00;70.50;;;;;;5122785;28;20038;-36
2021/06/28 11:10:39;;;;;;;1.17;0.90;;;23.00;70.60;;;;;;5120654;28;20115;-36
2021/06/28 11:13:40;;;;;;;0.90;0.80;;;23.00;70.40;;;;;;5122759;28;20023;-36
2021/06/28 11:16:29;;;;;;;1.05;0.95;;;23.00;70.60;;;;;;5122376;28;20082;-36
2021/06/28 11:18:55;;;;;;;1.00;0.90;;;23.00;70.40;;;;;;5122621;28;20028;-36
2021/06/28 11:21:38;;;;;;;0.90;0.90;;;23.00;70.30;;;;;;5122648;28;20055;-36
2021/06/28 11:24:04;;;;;;;1.63;1.10;;;23.00;70.00;;;;;;5122495;28;20024;-36
2021/06/28 11:26:34;;;;;;;0.88;0.88;;;23.00;70.20;;;;;;5120599;28;20040;-36
2021/06/28 11:29:00;;;;;;;1.10;1.00;;;23.00;69.90;;;;;;5123458;28;20020;-36
2021/06/28 11:31:28;;;;;;;1.25;0.95;;;23.00;70.50;;;;;;5126307;28;20028;-36
2021/06/28 11:33:56;;;;;;;0.88;0.88;;;23.00;69.70;;;;;;5126119;28;20027;-36
2021/06/28 11:36:29;;;;;;;1.10;1.00;;;22.90;70.20;;;;;;5125879;28;20059;-36
2021/06/28 11:38:56;;;;;;;1.20;1.10;;;23.00;70.10;;;;;;5126042;28;20074;-36
2021/06/28 11:41:27;;;;;;;1.00;0.90;;;23.00;70.80;;;;;;5126075;28;20032;-36
2021/06/28 11:43:54;;;;;;;1.30;1.20;;;23.00;70.80;;;;;;5125840;28;20059;-36
2021/06/28 11:46:29;;;;;;;0.95;0.88;;;23.00;71.00;;;;;;5125601;27;20640;-36
2021/06/28 11:49:03;;;;;;;1.00;1.00;;;23.00;70.60;;;;;;5125917;28;20027;-36
2021/06/28 11:51:51;;;;;;;1.30;1.00;;;23.00;70.90;;;;;;5126064;28;20100;-36
2021/06/28 11:54:19;;;;;;;2.25;0.90;;;23.00;71.20;;;;;;5125524;28;20027;-36
2021/06/28 11:56:51;;;;;;;1.00;0.95;;;23.00;70.80;;;;;;5125628;28;20034;-36
2021/06/28 11:59:21;;;;;;;1.10;0.90;;;23.00;70.60;;;;;;5124119;28;20024;-36
2021/06/28 12:01:57;;;;;;;0.95;0.95;;;23.00;70.50;;;;;;5124343;28;20031;-36
2021/06/28 12:04:28;;;;;;;1.13;1.02;;;23.00;70.50;;;;;;5125639;28;20100;-36
2021/06/28 12:06:55;;;;;;;0.90;0.90;;;23.00;70.20;;;;;;5124044;28;20130;-36
2021/06/28 12:09:32;;;;;;;1.02;1.00;;;23.00;70.30;;;;;;5124046;28;20023;-36
2021/06/28 12:11:59;;;;;;;0.90;0.90;;;23.00;70.10;;;;;;5125196;28;20043;-36
2021/06/28 12:14:45;;;;;;;1.27;1.17;;;23.00;70.20;;;;;;5125103;28;20127;-36
2021/06/28 12:17:21;;;;;;;0.80;0.80;;;23.00;70.40;;;;;;5125100;28;20043;-36
2021/06/28 12:19:48;;;;;;;1.13;1.02;;;23.00;70.50;;;;;;5125436;28;20059;-36
2021/06/28 12:22:15;;;;;;;1.20;1.10;;;23.00;70.50;;;;;;5125113;28;20095;-36
2021/06/28 12:24:47;;;;;;;1.15;1.02;;;23.00;70.70;;;;;;5124989;28;20087;-36
2021/06/28 12:27:17;;;;;;;1.52;1.13;;;23.00;70.90;;;;;;5124635;28;20061;-36
2021/06/28 12:29:48;;;;;;;1.00;0.90;;;23.00;70.70;;;;;;5125090;28;20023;-36
2021/06/28 12:32:35;;;;;;;0.90;0.90;;;23.00;70.70;;;;;;5123699;28;20055;-36
2021/06/28 12:35:05;;;;;;;1.35;1.10;;;23.00;70.60;;;;;;5124951;27;20028;-36
2021/06/28 12:37:39;;;;;;;1.00;1.00;;;23.00;70.80;;;;;;5124652;28;20028;-36
2021/06/28 12:40:28;;;;;;;1.20;1.10;;;23.00;70.70;;;;;;5124130;27;20026;-36
2021/06/28 12:43:06;;;;;;;1.10;1.00;;;23.00;70.60;;;;;;5124628;28;20031;-36
2021/06/28 12:45:41;;;;;;;1.45;1.00;;;23.00;70.40;;;;;;5124786;28;20034;-35
2021/06/28 12:48:15;;;;;;;1.10;1.00;;;23.10;70.70;;;;;;5123089;28;20028;-36
2021/06/28 12:50:41;;;;;;;1.20;0.98;;;23.10;70.70;;;;;;5123290;28;20135;-36
2021/06/28 12:53:15;;;;;;;1.33;1.10;;;23.10;70.40;;;;;;5124503;28;20035;-36
2021/06/28 12:55:41;;;;;;;1.25;1.00;;;23.10;70.30;;;;;;5124440;28;20272;-36